Time;durP1;ratioP1;P1;durP2;ratioP2;P2;SDS_P1;SDS_P2;PMS_P1;PMS_P2;Temp;Humidity;BMP_temperature;BMP_pressure;BME280_temperature;BME280_humidity;BME280_pressure;Samples;Min_cycle;Max_cycle;Signal;HPM_P1;HPM_P2
2022/08/10 00:01:18;;;;;;;6.50;4.27;;;;;;;;;;5075855;28;20463;-72
2022/08/10 00:03:45;;;;;;;6.07;4.17;;;;;;;;;;5076072;28;20969;-72
2022/08/10 00:06:12;;;;;;;10.80;4.90;;;;;;;;;;5075731;28;20451;-72
2022/08/10 00:08:41;;;;;;;5.70;4.40;;;;;;;;;;5075984;28;20447;-72
2022/08/10 00:11:08;;;;;;;8.10;5.40;;;;;;;;;;5075918;28;20452;-72
2022/08/10 00:13:36;;;;;;;11.50;5.57;;;;;;;;;;5075531;28;20479;-72
2022/08/10 00:16:03;;;;;;;10.50;6.40;;;;;;;;;;5075773;28;20492;-72
2022/08/10 00:18:30;;;;;;;11.77;6.13;;;;;;;;;;5075887;28;20797;-72
2022/08/10 00:20:57;;;;;;;9.97;5.47;;;;;;;;;;5075320;28;20458;-72
2022/08/10 00:23:24;;;;;;;12.53;6.60;;;;;;;;;;5075280;28;20467;-71
2022/08/10 00:25:53;;;;;;;19.37;7.17;;;;;;;;;;5075456;28;20456;-72
2022/08/10 00:28:20;;;;;;;13.43;6.63;;;;;;;;;;5075746;28;20439;-71
2022/08/10 00:30:48;;;;;;;10.17;5.80;;;;;;;;;;5075629;28;20459;-72
2022/08/10 00:33:15;;;;;;;10.73;5.80;;;;;;;;;;5075480;28;20475;-72
2022/08/10 00:35:42;;;;;;;12.80;5.60;;;;;;;;;;5075149;28;20490;-72
2022/08/10 00:38:09;;;;;;;11.73;4.83;;;;;;;;;;5075463;28;20813;-72
2022/08/10 00:40:36;;;;;;;9.10;3.90;;;;;;;;;;5075418;28;20463;-71
2022/08/10 00:43:04;;;;;;;9.60;4.30;;;;;;;;;;5074938;28;20480;-72
2022/08/10 00:45:31;;;;;;;8.87;5.63;;;;;;;;;;5075378;28;20968;-72
2022/08/10 00:47:59;;;;;;;13.03;5.27;;;;;;;;;;5075272;28;20459;-72
2022/08/10 00:50:26;;;;;;;7.83;4.77;;;;;;;;;;5075164;28;20447;-71
2022/08/10 00:52:53;;;;;;;11.93;6.27;;;;;;;;;;5075197;28;20478;-72
2022/08/10 00:55:20;;;;;;;10.33;4.83;;;;;;;;;;5075063;28;20499;-72
2022/08/10 00:57:48;;;;;;;8.13;5.80;;;;;;;;;;5075085;28;20452;-72
2022/08/10 01:00:16;;;;;;;8.03;5.63;;;;;;;;;;5075022;28;20452;-71
2022/08/10 01:02:44;;;;;;;10.50;5.97;;;;;;;;;;5074676;28;20501;-71
2022/08/10 01:05:13;;;;;;;8.27;4.63;;;;;;;;;;5074583;28;20459;-71
2022/08/10 01:07:49;;;;;;;10.80;5.93;;;;;;;;;;5074958;28;20955;-71
2022/08/10 01:10:23;;;;;;;8.27;5.60;;;;;;;;;;5074562;28;20442;-71
2022/08/10 01:12:53;;;;;;;16.07;6.20;;;;;;;;;;5074739;28;20838;-72
2022/08/10 01:15:24;;;;;;;8.43;4.10;;;;;;;;;;5074852;28;20479;-71
2022/08/10 01:17:54;;;;;;;5.83;4.13;;;;;;;;;;5074764;28;20950;-71
2022/08/10 01:20:26;;;;;;;8.83;4.87;;;;;;;;;;5074647;28;20440;-71
2022/08/10 01:23:20;;;;;;;9.20;4.70;;;;;;;;;;5074522;28;20468;-71
2022/08/10 01:25:57;;;;;;;7.57;4.47;;;;;;;;;;5074473;28;20435;-71
2022/08/10 01:28:31;;;;;;;5.23;4.73;;;;;;;;;;5074543;28;20538;-71
2022/08/10 01:31:01;;;;;;;7.83;4.70;;;;;;;;;;5074482;28;20438;-71
2022/08/10 01:33:30;;;;;;;9.17;5.70;;;;;;;;;;5073715;28;20471;-71
2022/08/10 01:35:59;;;;;;;13.40;5.90;;;;;;;;;;5074286;28;20845;-71
2022/08/10 01:38:28;;;;;;;10.80;5.83;;;;;;;;;;5074286;28;20452;-71
2022/08/10 01:40:56;;;;;;;6.70;5.30;;;;;;;;;;5074232;28;20459;-72
2022/08/10 01:43:25;;;;;;;8.50;5.47;;;;;;;;;;5074002;28;20487;-71
2022/08/10 01:45:54;;;;;;;6.87;3.80;;;;;;;;;;5074069;28;20458;-71
2022/08/10 01:48:27;;;;;;;7.40;4.23;;;;;;;;;;5074127;28;20929;-71
2022/08/10 01:50:57;;;;;;;6.57;4.70;;;;;;;;;;5073739;28;20540;-71
2022/08/10 01:53:26;;;;;;;15.83;5.33;;;;;;;;;;5073660;28;20518;-71
2022/08/10 01:55:55;;;;;;;11.47;5.50;;;;;;;;;;5073846;28;20491;-71
2022/08/10 01:58:23;;;;;;;8.90;5.60;;;;;;;;;;5073885;28;20466;-71
2022/08/10 02:00:51;;;;;;;7.37;5.03;;;;;;;;;;5073888;28;20543;-71
2022/08/10 02:03:19;;;;;;;10.93;5.87;;;;;;;;;;5073703;28;20475;-71
2022/08/10 02:05:49;;;;;;;5.40;4.90;;;;;;;;;;5073431;28;20444;-71
2022/08/10 02:08:18;;;;;;;4.70;4.30;;;;;;;;;;5073652;28;20463;-71
2022/08/10 02:10:47;;;;;;;10.13;4.43;;;;;;;;;;5073622;28;20956;-71
2022/08/10 02:13:16;;;;;;;9.37;5.23;;;;;;;;;;5073525;28;20467;-71
2022/08/10 02:15:45;;;;;;;8.23;5.13;;;;;;;;;;5073249;28;20577;-71
2022/08/10 02:18:13;;;;;;;7.77;5.10;;;;;;;;;;5073554;28;20456;-71
2022/08/10 02:20:41;;;;;;;12.47;7.87;;;;;;;;;;5073727;28;20929;-71
2022/08/10 02:23:12;;;;;;;6.67;5.30;;;;;;;;;;5073542;28;20841;-71
2022/08/10 02:25:40;;;;;;;10.33;6.10;;;;;;;;;;5073567;28;20436;-71
2022/08/10 02:28:07;;;;;;;9.17;4.97;;;;;;;;;;5073518;28;20905;-71
2022/08/10 02:30:35;;;;;;;7.30;4.97;;;;;;;;;;5073488;28;20447;-71
2022/08/10 02:33:03;;;;;;;11.60;5.17;;;;;;;;;;5073280;28;20472;-71
2022/08/10 02:35:30;;;;;;;8.57;5.63;;;;;;;;;;5073328;28;20530;-71
2022/08/10 02:38:00;;;;;;;9.60;5.87;;;;;;;;;;5073052;28;20448;-71
2022/08/10 02:40:31;;;;;;;11.63;6.73;;;;;;;;;;5073107;28;20440;-71
2022/08/10 02:43:02;;;;;;;8.30;5.53;;;;;;;;;;5072742;28;20490;-71
2022/08/10 02:45:32;;;;;;;9.57;4.67;;;;;;;;;;5072729;28;20442;-71
2022/08/10 02:48:02;;;;;;;8.70;5.10;;;;;;;;;;5073053;28;20440;-71
2022/08/10 02:50:30;;;;;;;8.30;5.20;;;;;;;;;;5073122;28;20944;-71
2022/08/10 02:53:00;;;;;;;10.07;5.47;;;;;;;;;;5072794;28;20467;-71
2022/08/10 02:55:31;;;;;;;10.17;5.17;;;;;;;;;;5073051;28;20499;-71
2022/08/10 02:58:03;;;;;;;6.93;4.70;;;;;;;;;;5073230;28;20432;-71
2022/08/10 03:00:30;;;;;;;6.13;5.23;;;;;;;;;;5073158;28;20432;-71
2022/08/10 03:02:58;;;;;;;9.13;5.80;;;;;;;;;;5072964;28;20471;-71
2022/08/10 03:05:26;;;;;;;13.97;7.00;;;;;;;;;;5072863;28;20447;-71
2022/08/10 03:07:55;;;;;;;10.60;6.27;;;;;;;;;;5073102;28;20821;-71
2022/08/10 03:10:24;;;;;;;9.90;5.43;;;;;;;;;;5073338;28;20929;-71
2022/08/10 03:12:55;;;;;;;14.60;5.67;;;;;;;;;;5072721;28;20464;-71
2022/08/10 03:15:23;;;;;;;10.03;5.03;;;;;;;;;;5072651;28;20483;-71
2022/08/10 03:17:51;;;;;;;12.83;6.00;;;;;;;;;;5072665;28;20447;-71
2022/08/10 03:20:20;;;;;;;9.00;5.73;;;;;;;;;;5073010;28;20797;-71
2022/08/10 03:22:49;;;;;;;9.37;5.27;;;;;;;;;;5072463;28;20468;-71
2022/08/10 03:25:17;;;;;;;9.20;5.17;;;;;;;;;;5072823;28;20460;-71
2022/08/10 03:27:44;;;;;;;12.93;5.97;;;;;;;;;;5072885;28;20436;-71
2022/08/10 03:30:13;;;;;;;11.80;5.13;;;;;;;;;;5072539;28;20440;-71
2022/08/10 03:32:41;;;;;;;8.17;5.90;;;;;;;;;;5072394;28;20484;-71
2022/08/10 03:35:09;;;;;;;9.27;4.93;;;;;;;;;;5072646;28;20455;-71
2022/08/10 03:37:36;;;;;;;7.20;5.73;;;;;;;;;;5072527;28;20452;-71
2022/08/10 03:40:04;;;;;;;13.07;5.43;;;;;;;;;;5072694;28;20953;-71
2022/08/10 03:42:32;;;;;;;5.93;4.90;;;;;;;;;;5072460;28;20468;-71
2022/08/10 03:45:00;;;;;;;6.70;4.40;;;;;;;;;;5073046;28;20806;-71
2022/08/10 03:47:29;;;;;;;5.10;4.60;;;;;;;;;;5072693;28;20448;-71
2022/08/10 03:49:57;;;;;;;5.30;4.80;;;;;;;;;;5072618;28;20951;-71
2022/08/10 03:52:25;;;;;;;4.87;4.43;;;;;;;;;;5072612;28;20985;-71
2022/08/10 03:54:52;;;;;;;6.37;4.80;;;;;;;;;;5072538;28;20817;-71
2022/08/10 03:57:20;;;;;;;7.87;5.27;;;;;;;;;;5074356;28;20499;-71
2022/08/10 03:59:47;;;;;;;5.30;4.70;;;;;;;;;;5076116;28;20804;-71
2022/08/10 04:02:14;;;;;;;5.67;4.80;;;;;;;;;;5075804;28;20447;-71
2022/08/10 04:04:43;;;;;;;6.23;4.70;;;;;;;;;;5076079;28;20432;-71
2022/08/10 04:07:11;;;;;;;4.70;4.20;;;;;;;;;;5076109;28;20947;-71
2022/08/10 04:09:39;;;;;;;6.30;4.50;;;;;;;;;;5075887;28;20459;-71
2022/08/10 04:12:06;;;;;;;5.00;4.50;;;;;;;;;;5075547;28;20475;-71
2022/08/10 04:14:33;;;;;;;9.73;4.93;;;;;;;;;;5075865;28;20451;-71
2022/08/10 04:17:00;;;;;;;5.67;4.80;;;;;;;;;;5075446;28;20491;-72
2022/08/10 04:19:29;;;;;;;6.50;4.37;;;;;;;;;;5075554;28;20482;-71
2022/08/10 04:22:07;;;;;;;7.20;4.83;;;;;;;;;;5075721;28;20444;-71
2022/08/10 04:24:37;;;;;;;15.43;4.40;;;;;;;;;;5075751;28;20440;-71
2022/08/10 04:27:04;;;;;;;6.57;4.80;;;;;;;;;;5075628;28;20794;-71
2022/08/10 04:29:31;;;;;;;6.30;5.13;;;;;;;;;;5075365;28;20436;-71
2022/08/10 04:31:59;;;;;;;9.17;6.23;;;;;;;;;;5075588;28;20451;-71
2022/08/10 04:34:30;;;;;;;8.63;4.70;;;;;;;;;;5075240;28;20467;-71
2022/08/10 04:37:00;;;;;;;13.07;5.73;;;;;;;;;;5075129;28;20475;-71
2022/08/10 04:39:27;;;;;;;5.83;4.23;;;;;;;;;;5075054;28;20456;-72
2022/08/10 04:41:54;;;;;;;6.63;4.60;;;;;;;;;;5074999;28;20452;-71
2022/08/10 04:44:21;;;;;;;8.03;4.60;;;;;;;;;;5074876;28;20487;-71
2022/08/10 04:46:48;;;;;;;7.70;4.63;;;;;;;;;;5075379;28;20929;-71
2022/08/10 04:49:15;;;;;;;7.93;4.20;;;;;;;;;;5075160;28;20468;-71
2022/08/10 04:51:43;;;;;;;4.33;3.80;;;;;;;;;;5075175;28;20450;-71
2022/08/10 04:54:11;;;;;;;4.73;2.93;;;;;;;;;;5075083;28;20828;-74
2022/08/10 04:56:39;;;;;;;3.40;3.10;;;;;;;;;;5075074;28;20475;-72
2022/08/10 04:59:07;;;;;;;3.10;2.80;;;;;;;;;;5074928;28;20468;-72
2022/08/10 05:01:34;;;;;;;5.10;3.83;;;;;;;;;;5074910;28;20547;-71
2022/08/10 05:04:01;;;;;;;6.03;3.47;;;;;;;;;;5074837;28;20482;-72
2022/08/10 05:06:28;;;;;;;3.30;3.10;;;;;;;;;;5074893;28;20925;-72
2022/08/10 05:08:55;;;;;;;4.40;2.60;;;;;;;;;;5074712;28;20440;-72
2022/08/10 05:11:24;;;;;;;4.70;3.00;;;;;;;;;;5074807;28;20909;-72
2022/08/10 05:13:51;;;;;;;7.13;3.07;;;;;;;;;;5074353;28;20472;-72
2022/08/10 05:16:18;;;;;;;5.10;3.40;;;;;;;;;;5074219;28;20490;-72
2022/08/10 05:18:45;;;;;;;5.70;3.73;;;;;;;;;;5074684;28;20538;-72
2022/08/10 05:21:12;;;;;;;9.73;4.03;;;;;;;;;;5074573;28;20460;-72
2022/08/10 05:23:39;;;;;;;6.47;4.20;;;;;;;;;;5074096;28;20474;-72
2022/08/10 05:26:07;;;;;;;8.43;3.83;;;;;;;;;;5074472;28;20937;-72
2022/08/10 05:28:35;;;;;;;7.30;3.93;;;;;;;;;;5074418;28;20432;-71
2022/08/10 05:31:02;;;;;;;7.20;3.70;;;;;;;;;;5074408;28;20802;-71
2022/08/10 05:33:29;;;;;;;8.27;5.10;;;;;;;;;;5074231;28;20476;-72
2022/08/10 05:35:56;;;;;;;6.07;4.07;;;;;;;;;;5074194;28;21008;-72
2022/08/10 05:38:24;;;;;;;7.00;3.07;;;;;;;;;;5073884;28;20451;-72
2022/08/10 05:40:51;;;;;;;5.90;3.37;;;;;;;;;;5074193;28;20456;-72
2022/08/10 05:43:19;;;;;;;4.97;3.43;;;;;;;;;;5073587;28;20488;-72
2022/08/10 05:45:48;;;;;;;6.20;3.70;;;;;;;;;;5074090;28;20550;-72
2022/08/10 05:48:15;;;;;;;5.53;3.50;;;;;;;;;;5073649;28;20478;-72
2022/08/10 05:50:42;;;;;;;15.50;4.10;;;;;;;;;;5073874;28;20827;-72
2022/08/10 05:53:09;;;;;;;4.57;3.10;;;;;;;;;;5073780;28;20472;-72
2022/08/10 05:55:37;;;;;;;6.43;4.00;;;;;;;;;;5073861;28;20808;-73
2022/08/10 05:58:04;;;;;;;9.30;3.10;;;;;;;;;;5073452;28;20487;-72
2022/08/10 06:00:32;;;;;;;4.13;2.27;;;;;;;;;;5073730;28;20947;-72
2022/08/10 06:03:02;;;;;;;8.33;3.03;;;;;;;;;;5073591;28;20475;-72
2022/08/10 06:05:31;;;;;;;9.13;3.03;;;;;;;;;;5073330;28;20452;-72
2022/08/10 06:08:00;;;;;;;8.23;3.10;;;;;;;;;;5073664;28;20448;-72
2022/08/10 06:10:28;;;;;;;6.37;2.57;;;;;;;;;;5073258;28;20443;-72
2022/08/10 06:15:37;;;;;;;5.00;3.77;;;;;;;;;;5072954;28;20476;-72
2022/08/10 06:18:06;;;;;;;5.87;3.20;;;;;;;;;;5073039;28;20483;-72
2022/08/10 06:20:33;;;;;;;6.10;3.67;;;;;;;;;;5073012;28;20912;-72
2022/08/10 06:23:01;;;;;;;3.73;2.37;;;;;;;;;;5073303;28;20479;-72
2022/08/10 06:25:29;;;;;;;5.20;2.93;;;;;;;;;;5073377;28;20448;-72
2022/08/10 06:27:57;;;;;;;5.93;2.57;;;;;;;;;;5073377;28;20436;-72
2022/08/10 06:30:25;;;;;;;5.70;2.77;;;;;;;;;;5073027;28;20505;-72
2022/08/10 06:32:54;;;;;;;6.70;2.23;;;;;;;;;;5072973;28;20537;-72
2022/08/10 06:35:23;;;;;;;6.40;2.97;;;;;;;;;;5073188;28;20826;-72
2022/08/10 06:37:51;;;;;;;5.30;2.83;;;;;;;;;;5072801;28;20483;-72
2022/08/10 06:40:18;;;;;;;5.80;3.50;;;;;;;;;;5073316;28;20793;-72
2022/08/10 06:42:48;;;;;;;4.03;2.30;;;;;;;;;;5073028;28;20485;-72
2022/08/10 06:45:17;;;;;;;4.60;3.10;;;;;;;;;;5073285;28;20933;-72
2022/08/10 06:47:45;;;;;;;3.00;2.70;;;;;;;;;;5072952;28;20447;-72
2022/08/10 06:50:16;;;;;;;3.33;2.57;;;;;;;;;;5073476;28;20538;-73
2022/08/10 06:52:46;;;;;;;7.50;3.67;;;;;;;;;;5073245;28;20471;-72
2022/08/10 06:55:14;;;;;;;2.83;2.20;;;;;;;;;;5073244;28;20458;-71
2022/08/10 06:57:42;;;;;;;3.03;2.33;;;;;;;;;;5080134;28;20485;-71
2022/08/10 07:00:09;;;;;;;6.10;2.90;;;;;;;;;;5091447;28;20441;-71
2022/08/10 07:02:40;;;;;;;6.83;3.63;;;;;;;;;;5090977;28;20531;-71
2022/08/10 07:05:09;;;;;;;7.07;3.40;;;;;;;;;;5091273;28;20458;-71
2022/08/10 07:07:37;;;;;;;5.57;3.30;;;;;;;;;;5091698;28;20505;-72
2022/08/10 07:10:07;;;;;;;5.87;3.13;;;;;;;;;;5092064;28;20431;-72
2022/08/10 07:12:35;;;;;;;2.87;2.40;;;;;;;;;;5092055;28;20475;-72
2022/08/10 07:15:03;;;;;;;4.67;2.83;;;;;;;;;;5091870;28;20447;-72
2022/08/10 07:17:31;;;;;;;6.00;2.37;;;;;;;;;;5092021;28;20497;-72
2022/08/10 07:19:59;;;;;;;7.30;2.97;;;;;;;;;;5091903;28;20458;-73
2022/08/10 07:22:28;;;;;;;6.00;2.80;;;;;;;;;;5091598;28;20477;-73
2022/08/10 07:24:56;;;;;;;3.73;2.60;;;;;;;;;;5091837;28;20816;-71
2022/08/10 07:27:25;;;;;;;5.53;2.47;;;;;;;;;;5091785;28;20431;-72
2022/08/10 07:29:53;;;;;;;7.47;2.90;;;;;;;;;;5092741;28;20904;-72
2022/08/10 07:32:22;;;;;;;7.03;2.60;;;;;;;;;;5095046;28;20453;-71
2022/08/10 07:34:52;;;;;;;9.70;3.20;;;;;;;;;;5096438;28;20849;-72
2022/08/10 07:37:20;;;;;;;7.60;3.60;;;;;;;;;;5096505;28;20482;-72
2022/08/10 07:39:49;;;;;;;3.90;2.57;;;;;;;;;;5096496;28;20446;-72
2022/08/10 07:42:18;;;;;;;15.93;3.73;;;;;;;;;;5096696;28;20456;-72
2022/08/10 07:44:47;;;;;;;5.43;3.17;;;;;;;;;;5096345;28;20452;-72
2022/08/10 07:47:16;;;;;;;5.03;2.53;;;;;;;;;;5096590;28;20450;-71
2022/08/10 07:49:45;;;;;;;4.50;2.73;;;;;;;;;;5096392;28;20513;-72
2022/08/10 07:52:12;;;;;;;5.17;3.27;;;;;;;;;;5096372;28;20447;-72
2022/08/10 07:54:41;;;;;;;3.80;2.30;;;;;;;;;;5096569;28;20447;-72
2022/08/10 07:57:10;;;;;;;4.27;2.40;;;;;;;;;;5096536;28;20486;-72
2022/08/10 07:59:38;;;;;;;4.80;2.47;;;;;;;;;;5096008;28;20474;-72
2022/08/10 08:02:08;;;;;;;4.07;2.40;;;;;;;;;;5096018;28;20455;-72
2022/08/10 08:04:35;;;;;;;8.87;2.80;;;;;;;;;;5096429;28;20451;-72
2022/08/10 08:07:03;;;;;;;5.33;2.83;;;;;;;;;;5095995;28;20447;-72
2022/08/10 08:09:31;;;;;;;6.43;2.50;;;;;;;;;;5096316;28;20447;-72
2022/08/10 08:11:58;;;;;;;3.33;2.43;;;;;;;;;;5096355;28;20464;-72
2022/08/10 08:14:26;;;;;;;2.70;2.20;;;;;;;;;;5096178;28;20478;-72
2022/08/10 08:16:54;;;;;;;4.33;2.37;;;;;;;;;;5096165;28;20489;-72
2022/08/10 08:19:23;;;;;;;4.37;2.10;;;;;;;;;;5096067;28;21046;-72
2022/08/10 08:21:50;;;;;;;5.63;2.57;;;;;;;;;;5095814;28;20450;-72
2022/08/10 08:24:18;;;;;;;3.80;2.20;;;;;;;;;;5095909;28;20471;-72
2022/08/10 08:26:46;;;;;;;6.30;2.13;;;;;;;;;;5095259;28;20439;-72
2022/08/10 08:29:13;;;;;;;7.23;2.70;;;;;;;;;;5095440;28;20459;-72
2022/08/10 08:31:41;;;;;;;4.37;2.43;;;;;;;;;;5095530;28;20454;-72
2022/08/10 08:34:09;;;;;;;2.23;1.73;;;;;;;;;;5095724;28;20470;-72
2022/08/10 08:36:40;;;;;;;3.50;2.40;;;;;;;;;;5095390;28;20457;-72
2022/08/10 08:39:07;;;;;;;6.23;2.03;;;;;;;;;;5095791;28;20806;-72
2022/08/10 08:41:45;;;;;;;2.73;2.00;;;;;;;;;;5095588;28;20986;-72
2022/08/10 08:44:15;;;;;;;2.50;1.90;;;;;;;;;;5094824;28;20535;-71
2022/08/10 08:46:51;;;;;;;2.17;1.73;;;;;;;;;;5095138;28;20442;-72
2022/08/10 08:49:32;;;;;;;3.50;2.03;;;;;;;;;;5095512;28;20805;-72
2022/08/10 08:52:07;;;;;;;5.70;2.10;;;;;;;;;;5095032;28;20438;-72
2022/08/10 08:54:39;;;;;;;10.23;2.50;;;;;;;;;;5095167;28;20438;-72
2022/08/10 08:57:08;;;;;;;1.93;1.70;;;;;;;;;;5095019;28;20466;-72
2022/08/10 08:59:40;;;;;;;3.93;2.63;;;;;;;;;;5095401;28;20909;-72
2022/08/10 09:02:13;;;;;;;2.83;1.80;;;;;;;;;;5094899;28;20435;-72
2022/08/10 09:04:49;;;;;;;4.33;1.50;;;;;;;;;;5095029;28;20492;-72
2022/08/10 09:07:31;;;;;;;2.53;1.73;;;;;;;;;;5095144;28;20434;-72
2022/08/10 09:10:10;;;;;;;3.33;1.80;;;;;;;;;;5092685;28;20484;-72
2022/08/10 09:12:44;;;;;;;4.10;1.93;;;;;;;;;;5095043;28;20964;-72
2022/08/10 09:15:15;;;;;;;4.30;2.00;;;;;;;;;;5095031;28;20442;-73
2022/08/10 09:17:47;;;;;;;4.00;2.07;;;;;;;;;;5094589;28;20467;-72
2022/08/10 09:20:17;;;;;;;5.20;1.70;;;;;;;;;;5095017;28;20432;-73
2022/08/10 09:22:47;;;;;;;6.00;2.13;;;;;;;;;;5094826;28;20497;-72
2022/08/10 09:25:18;;;;;;;2.47;2.13;;;;;;;;;;5094436;28;20455;-72
2022/08/10 09:27:46;;;;;;;2.40;1.90;;;;;;;;;;5094532;28;20481;-73
2022/08/10 09:30:15;;;;;;;2.37;2.10;;;;;;;;;;5094368;28;20450;-73
2022/08/10 09:32:45;;;;;;;3.20;1.90;;;;;;;;;;5094697;28;20877;-73
2022/08/10 09:35:15;;;;;;;4.07;2.50;;;;;;;;;;5094338;28;20446;-72
2022/08/10 09:37:45;;;;;;;4.90;2.10;;;;;;;;;;5094232;28;20485;-72
2022/08/10 09:40:16;;;;;;;2.40;2.10;;;;;;;;;;5094251;28;20441;-72
2022/08/10 09:42:46;;;;;;;2.40;1.63;;;;;;;;;;5094258;28;20509;-72
2022/08/10 09:45:17;;;;;;;2.03;1.60;;;;;;;;;;5094167;28;20434;-72
2022/08/10 09:47:53;;;;;;;4.33;1.80;;;;;;;;;;5094686;28;20974;-72
2022/08/10 09:50:23;;;;;;;11.30;2.33;;;;;;;;;;5094693;28;21293;-72
2022/08/10 09:52:55;;;;;;;5.17;1.60;;;;;;;;;;5094279;28;20479;-73
2022/08/10 09:55:27;;;;;;;3.70;1.67;;;;;;;;;;5093533;28;20545;-74
2022/08/10 09:58:01;;;;;;;2.97;1.73;;;;;;;;;;5094212;28;20474;-72
2022/08/10 10:00:33;;;;;;;2.10;1.60;;;;;;;;;;5094199;28;20457;-72
2022/08/10 10:03:07;;;;;;;1.87;1.70;;;;;;;;;;5094101;28;20466;-72
2022/08/10 10:05:39;;;;;;;5.73;1.77;;;;;;;;;;5094003;28;20446;-73
2022/08/10 10:08:09;;;;;;;7.13;1.70;;;;;;;;;;5093892;28;20445;-73
2022/08/10 10:10:39;;;;;;;6.63;1.90;;;;;;;;;;5094055;28;20435;-73
2022/08/10 10:13:09;;;;;;;5.90;1.83;;;;;;;;;;5093881;28;20475;-72
2022/08/10 10:15:41;;;;;;;3.87;1.87;;;;;;;;;;5094056;28;20446;-73
2022/08/10 10:18:18;;;;;;;3.00;2.00;;;;;;;;;;5093795;28;20471;-72
2022/08/10 10:20:49;;;;;;;4.50;1.80;;;;;;;;;;5094059;28;20484;-73
2022/08/10 10:23:22;;;;;;;2.37;1.63;;;;;;;;;;5094601;28;20474;-74
2022/08/10 10:25:55;;;;;;;4.50;1.87;;;;;;;;;;5091883;28;20435;-72
2022/08/10 10:28:34;;;;;;;3.13;1.90;;;;;;;;;;5092192;28;20492;-71
2022/08/10 10:31:05;;;;;;;3.00;2.30;;;;;;;;;;5092556;28;20609;-73
2022/08/10 10:33:36;;;;;;;3.03;1.93;;;;;;;;;;5092425;28;20462;-72
2022/08/10 10:36:04;;;;;;;3.77;2.00;;;;;;;;;;5092761;28;20525;-73
2022/08/10 10:38:35;;;;;;;2.60;1.90;;;;;;;;;;5091760;28;20573;-72
2022/08/10 10:41:08;;;;;;;3.00;1.67;;;;;;;;;;5092475;28;20442;-73
2022/08/10 10:43:45;;;;;;;2.87;1.57;;;;;;;;;;5091894;28;20487;-73
2022/08/10 10:46:17;;;;;;;5.07;2.10;;;;;;;;;;5092562;28;20427;-74
2022/08/10 10:48:48;;;;;;;3.10;1.53;;;;;;;;;;5092291;28;20438;-73
2022/08/10 10:51:18;;;;;;;3.63;1.73;;;;;;;;;;5092201;28;20446;-74
2022/08/10 10:53:48;;;;;;;2.10;1.70;;;;;;;;;;5092039;28;20470;-73
2022/08/10 10:56:18;;;;;;;2.20;1.50;;;;;;;;;;5092825;28;20454;-74
2022/08/10 10:58:54;;;;;;;2.00;1.40;;;;;;;;;;5092839;28;20512;-74
2022/08/10 11:01:24;;;;;;;3.90;1.90;;;;;;;;;;5092522;28;20441;-74
2022/08/10 11:04:01;;;;;;;6.50;1.80;;;;;;;;;;5092964;28;20481;-74
2022/08/10 11:06:38;;;;;;;2.37;2.17;;;;;;;;;;5095533;28;20849;-75
2022/08/10 11:09:06;;;;;;;2.13;1.80;;;;;;;;;;5096746;28;20431;-75
2022/08/10 11:11:36;;;;;;;5.20;1.80;;;;;;;;;;5096646;28;20935;-75
2022/08/10 11:14:12;;;;;;;4.00;2.20;;;;;;;;;;5096579;28;20471;-73
2022/08/10 11:16:42;;;;;;;2.60;1.50;;;;;;;;;;5096683;28;20442;-75
2022/08/10 11:19:14;;;;;;;3.30;1.70;;;;;;;;;;5097151;28;20556;-74
2022/08/10 11:21:50;;;;;;;2.10;1.90;;;;;;;;;;5097239;28;20434;-75
2022/08/10 11:24:21;;;;;;;2.80;2.00;;;;;;;;;;5096778;28;20481;-75
2022/08/10 11:26:58;;;;;;;4.03;2.00;;;;;;;;;;5097211;28;20803;-75
2022/08/10 11:29:39;;;;;;;4.77;1.97;;;;;;;;;;5096799;28;20430;-75
2022/08/10 11:32:12;;;;;;;3.93;1.90;;;;;;;;;;5096649;28;20510;-74
2022/08/10 11:34:46;;;;;;;1.73;1.50;;;;;;;;;;5096744;28;20447;-75
2022/08/10 11:37:19;;;;;;;2.03;1.83;;;;;;;;;;5096941;28;20458;-75
2022/08/10 11:39:49;;;;;;;3.03;1.97;;;;;;;;;;5096545;28;20474;-76
2022/08/10 11:42:20;;;;;;;2.67;2.10;;;;;;;;;;5096732;28;20793;-75
2022/08/10 11:44:51;;;;;;;3.80;1.90;;;;;;;;;;5096761;28;20756;-75
2022/08/10 11:47:20;;;;;;;2.00;1.80;;;;;;;;;;5096769;28;20799;-74
2022/08/10 11:49:50;;;;;;;3.50;1.60;;;;;;;;;;5096504;28;20443;-75
2022/08/10 11:52:20;;;;;;;4.27;1.57;;;;;;;;;;5096634;28;20430;-74
2022/08/10 11:54:50;;;;;;;2.30;1.70;;;;;;;;;;5096637;28;20442;-75
2022/08/10 11:57:18;;;;;;;3.97;1.60;;;;;;;;;;5096594;28;20439;-74
2022/08/10 11:59:56;;;;;;;3.80;1.97;;;;;;;;;;5096516;28;20482;-74
2022/08/10 12:02:26;;;;;;;2.93;1.50;;;;;;;;;;5096378;28;21035;-75
2022/08/10 12:04:56;;;;;;;3.97;1.90;;;;;;;;;;5096376;28;20451;-74
2022/08/10 12:07:27;;;;;;;2.50;2.00;;;;;;;;;;5096663;28;20942;-75
2022/08/10 12:09:54;;;;;;;3.50;3.20;;;;;;;;;;5096255;28;20447;-74
2022/08/10 12:12:22;;;;;;;4.80;2.27;;;;;;;;;;5096240;28;20960;-74
2022/08/10 12:14:52;;;;;;;4.27;1.90;;;;;;;;;;5096221;28;20446;-74
2022/08/10 12:17:20;;;;;;;3.43;1.93;;;;;;;;;;5094899;28;20451;-73
2022/08/10 12:19:55;;;;;;;2.33;1.73;;;;;;;;;;5095650;28;20481;-73
2022/08/10 12:22:24;;;;;;;2.23;2.00;;;;;;;;;;5096108;28;21017;-73
2022/08/10 12:24:53;;;;;;;2.10;1.63;;;;;;;;;;5095483;28;20807;-73
2022/08/10 12:27:22;;;;;;;3.47;2.13;;;;;;;;;;5095859;28;20813;-72
2022/08/10 12:29:54;;;;;;;3.20;2.20;;;;;;;;;;5095557;28;20447;-72
2022/08/10 12:32:27;;;;;;;2.23;1.77;;;;;;;;;;5095888;28;20446;-72
2022/08/10 12:35:00;;;;;;;2.67;1.97;;;;;;;;;;5095666;28;20480;-72
2022/08/10 12:37:31;;;;;;;3.40;1.90;;;;;;;;;;5094934;28;20471;-72
2022/08/10 12:40:03;;;;;;;5.20;2.70;;;;;;;;;;5095270;28;20478;-73
2022/08/10 12:42:34;;;;;;;4.83;2.50;;;;;;;;;;5094844;28;20467;-72
2022/08/10 12:45:03;;;;;;;2.73;1.80;;;;;;;;;;5094988;28;20435;-72
2022/08/10 12:47:38;;;;;;;2.27;1.90;;;;;;;;;;5095225;28;20936;-73
2022/08/10 12:50:14;;;;;;;2.10;1.83;;;;;;;;;;5093089;28;20431;-72
2022/08/10 12:52:44;;;;;;;2.73;2.30;;;;;;;;;;5093249;28;20523;-72
2022/08/10 12:55:12;;;;;;;2.90;1.60;;;;;;;;;;5094634;28;20896;-72
2022/08/10 12:57:40;;;;;;;3.20;2.07;;;;;;;;;;5095427;28;20455;-72
2022/08/10 13:00:09;;;;;;;2.93;1.53;;;;;;;;;;5095347;28;20486;-72
2022/08/10 13:02:38;;;;;;;2.10;1.90;;;;;;;;;;5095167;28;20475;-72
2022/08/10 13:05:09;;;;;;;3.30;2.23;;;;;;;;;;5095050;28;20462;-72
2022/08/10 13:07:39;;;;;;;3.90;1.70;;;;;;;;;;5095184;28;20431;-72
2022/08/10 13:10:08;;;;;;;2.77;2.00;;;;;;;;;;5094947;28;20945;-72
2022/08/10 13:12:36;;;;;;;4.13;2.07;;;;;;;;;;5094574;28;20474;-72
2022/08/10 13:15:05;;;;;;;3.10;1.80;;;;;;;;;;5094598;28;20450;-72
2022/08/10 13:17:33;;;;;;;4.80;1.90;;;;;;;;;;5094864;28;20462;-72
2022/08/10 13:20:01;;;;;;;3.23;2.13;;;;;;;;;;5094608;28;20498;-72
2022/08/10 13:22:30;;;;;;;3.13;2.73;;;;;;;;;;5094436;28;20498;-72
2022/08/10 13:25:02;;;;;;;2.00;1.77;;;;;;;;;;5094705;28;20968;-72
2022/08/10 13:27:30;;;;;;;3.87;1.90;;;;;;;;;;5095351;28;20435;-72
2022/08/10 13:30:00;;;;;;;4.27;2.60;;;;;;;;;;5094388;28;20451;-72
2022/08/10 13:32:28;;;;;;;3.77;1.90;;;;;;;;;;5094358;28;20477;-72
2022/08/10 13:34:57;;;;;;;4.47;2.03;;;;;;;;;;5094544;28;20871;-72
2022/08/10 13:37:26;;;;;;;2.80;1.60;;;;;;;;;;5094506;28;20481;-72
2022/08/10 13:39:54;;;;;;;6.83;1.70;;;;;;;;;;5091979;28;20497;-73
2022/08/10 13:42:23;;;;;;;2.50;1.60;;;;;;;;;;5092287;28;20451;-72
2022/08/10 13:44:52;;;;;;;4.73;1.70;;;;;;;;;;5093217;28;20908;-71
2022/08/10 13:47:20;;;;;;;3.10;1.83;;;;;;;;;;5092872;28;20977;-72
2022/08/10 13:49:48;;;;;;;2.60;1.70;;;;;;;;;;5093113;28;20439;-71
2022/08/10 13:52:16;;;;;;;2.30;1.90;;;;;;;;;;5092431;28;20458;-72
2022/08/10 13:54:45;;;;;;;2.20;1.80;;;;;;;;;;5092645;28;20939;-72
2022/08/10 13:57:15;;;;;;;2.00;1.60;;;;;;;;;;5093060;28;20434;-74
2022/08/10 13:59:45;;;;;;;4.20;2.30;;;;;;;;;;5093002;28;20972;-71
2022/08/10 14:02:13;;;;;;;4.60;2.20;;;;;;;;;;5092915;28;20905;-72
2022/08/10 14:04:44;;;;;;;2.20;1.70;;;;;;;;;;5092874;28;20481;-72
2022/08/10 14:07:12;;;;;;;1.87;1.57;;;;;;;;;;5093681;28;20488;-72
2022/08/10 14:09:39;;;;;;;3.83;2.60;;;;;;;;;;5093230;28;20447;-72
2022/08/10 14:12:08;;;;;;;6.00;1.90;;;;;;;;;;5093677;28;20451;-72
2022/08/10 14:14:36;;;;;;;2.00;1.60;;;;;;;;;;5094016;28;20500;-72
2022/08/10 14:17:04;;;;;;;4.13;2.20;;;;;;;;;;5093604;28;20457;-72
2022/08/10 14:19:36;;;;;;;2.90;2.00;;;;;;;;;;5093971;28;20911;-72
2022/08/10 14:22:03;;;;;;;2.20;1.80;;;;;;;;;;5093730;28;20434;-72
2022/08/10 14:24:32;;;;;;;3.57;1.80;;;;;;;;;;5093915;28;20451;-73
2022/08/10 14:27:02;;;;;;;2.00;1.70;;;;;;;;;;5093936;28;20451;-73
2022/08/10 14:29:30;;;;;;;2.47;1.83;;;;;;;;;;5093562;28;20434;-73
2022/08/10 14:31:59;;;;;;;2.40;1.87;;;;;;;;;;5093779;28;20447;-73
2022/08/10 14:34:30;;;;;;;2.17;1.63;;;;;;;;;;5093635;28;20494;-73
2022/08/10 14:36:58;;;;;;;3.10;1.50;;;;;;;;;;5093472;28;20461;-73
2022/08/10 14:39:26;;;;;;;3.30;1.50;;;;;;;;;;5093559;28;20490;-73
2022/08/10 14:41:54;;;;;;;3.03;1.87;;;;;;;;;;5093206;28;20465;-73
2022/08/10 14:44:22;;;;;;;1.87;1.67;;;;;;;;;;5093185;28;20494;-73
2022/08/10 14:46:51;;;;;;;3.00;1.87;;;;;;;;;;5093305;28;20475;-73
2022/08/10 14:49:18;;;;;;;2.30;1.73;;;;;;;;;;5093254;28;20451;-74
2022/08/10 14:51:48;;;;;;;1.97;1.70;;;;;;;;;;5093755;28;20457;-73
2022/08/10 14:54:16;;;;;;;2.67;1.90;;;;;;;;;;5093381;28;20470;-74
2022/08/10 14:56:44;;;;;;;4.93;1.57;;;;;;;;;;5093984;28;20443;-75